createdAt,value
2017-08-31T00:01:23.468Z,6.60
2017-08-31T00:03:51.705Z,6.53
2017-08-31T00:06:19.242Z,7.30
2017-08-31T00:08:46.793Z,6.87
2017-08-31T00:11:14.359Z,7.13
2017-08-31T00:13:41.937Z,7.07
2017-08-31T00:16:09.516Z,6.90
2017-08-31T00:18:37.029Z,5.30
2017-08-31T00:21:04.542Z,6.73
2017-08-31T00:23:32.082Z,6.40
2017-08-31T00:25:59.619Z,5.80
2017-08-31T00:28:27.170Z,6.57
2017-08-31T00:30:54.776Z,6.50
2017-08-31T00:33:22.390Z,7.00
2017-08-31T00:35:50.202Z,6.70
2017-08-31T00:38:17.803Z,6.70
2017-08-31T00:40:45.343Z,6.30
2017-08-31T00:43:12.911Z,6.10
2017-08-31T00:45:40.511Z,6.50
2017-08-31T00:48:08.041Z,5.93
2017-08-31T00:50:35.686Z,5.93
2017-08-31T00:53:03.268Z,6.93
2017-08-31T00:55:31.015Z,6.57
2017-08-31T00:57:58.549Z,6.00
2017-08-31T01:00:26.215Z,6.83
2017-08-31T01:02:53.952Z,6.17
2017-08-31T01:05:21.570Z,5.77
2017-08-31T01:07:49.143Z,5.77
2017-08-31T01:10:16.929Z,7.17
2017-08-31T01:12:44.672Z,6.67
2017-08-31T01:15:12.461Z,6.20
2017-08-31T01:17:40.254Z,7.00
2017-08-31T01:20:07.815Z,6.70
2017-08-31T01:22:35.452Z,5.93
2017-08-31T01:25:03.009Z,6.60
2017-08-31T01:27:30.791Z,6.50
2017-08-31T01:29:58.388Z,6.70
2017-08-31T01:32:26.004Z,6.10
2017-08-31T01:34:53.601Z,6.20
2017-08-31T01:37:21.415Z,6.30
2017-08-31T01:39:49.069Z,6.20
2017-08-31T01:42:16.941Z,6.30
2017-08-31T01:44:44.565Z,6.20
2017-08-31T01:47:12.163Z,6.97
2017-08-31T01:49:39.705Z,6.53
2017-08-31T01:52:07.500Z,7.00
2017-08-31T01:54:35.096Z,6.80
2017-08-31T01:57:02.650Z,6.67
2017-08-31T01:59:30.200Z,6.53
2017-08-31T02:01:58.387Z,7.27
2017-08-31T02:04:26.135Z,6.77
2017-08-31T02:06:53.673Z,6.83
2017-08-31T02:09:21.216Z,6.23
2017-08-31T02:11:48.763Z,7.00
2017-08-31T02:14:16.310Z,5.57
2017-08-31T02:16:43.884Z,6.47
2017-08-31T02:19:11.410Z,6.50
2017-08-31T02:21:39.000Z,6.90
2017-08-31T02:24:06.579Z,6.17
2017-08-31T02:26:34.108Z,6.43
2017-08-31T02:29:01.646Z,6.63
2017-08-31T02:31:29.337Z,6.93
2017-08-31T02:33:57.085Z,6.63
2017-08-31T02:36:24.681Z,6.20
2017-08-31T02:38:52.268Z,6.80
2017-08-31T02:41:20.033Z,6.70
2017-08-31T02:43:47.776Z,6.83
2017-08-31T02:46:15.370Z,7.00
2017-08-31T02:48:42.894Z,7.67
2017-08-31T02:51:10.422Z,6.67
2017-08-31T02:53:37.996Z,6.10
2017-08-31T02:56:05.512Z,7.90
2017-08-31T02:58:33.262Z,7.30
2017-08-31T03:01:00.867Z,7.37
2017-08-31T03:03:29.085Z,6.97
2017-08-31T03:05:56.817Z,7.10
2017-08-31T03:08:24.455Z,7.53
2017-08-31T03:10:52.002Z,7.90
2017-08-31T03:13:19.614Z,8.70
2017-08-31T03:15:47.191Z,8.03
2017-08-31T03:18:14.765Z,7.57
2017-08-31T03:20:42.508Z,7.60
2017-08-31T03:23:10.059Z,7.20
2017-08-31T03:25:38.404Z,7.53
2017-08-31T03:28:06.129Z,8.20
2017-08-31T03:30:33.734Z,6.83
2017-08-31T03:33:01.265Z,7.30
2017-08-31T03:35:28.821Z,8.13
2017-08-31T03:37:56.357Z,7.87
2017-08-31T03:40:23.939Z,7.70
2017-08-31T03:42:51.688Z,7.90
2017-08-31T03:45:19.291Z,7.70
2017-08-31T03:47:47.048Z,7.07
2017-08-31T03:50:14.572Z,7.90
2017-08-31T03:52:42.126Z,7.03
2017-08-31T03:55:09.668Z,7.40
2017-08-31T03:57:37.457Z,7.43
2017-08-31T04:00:07.081Z,9.63
2017-08-31T04:02:34.878Z,8.47
2017-08-31T04:05:02.447Z,8.60
2017-08-31T04:07:30.001Z,8.70
2017-08-31T04:09:57.557Z,8.50
2017-08-31T04:12:25.091Z,7.80
2017-08-31T04:14:52.687Z,7.80
2017-08-31T04:17:20.444Z,9.47
2017-08-31T04:19:48.348Z,9.90
2017-08-31T04:22:15.931Z,8.63
2017-08-31T04:24:43.496Z,9.20
2017-08-31T04:27:11.239Z,8.97
2017-08-31T04:29:39.058Z,8.60
2017-08-31T04:32:06.700Z,9.53
2017-08-31T04:34:35.287Z,9.43
2017-08-31T04:37:02.922Z,8.90
2017-08-31T04:39:30.598Z,9.00
2017-08-31T04:41:58.354Z,8.63
2017-08-31T04:44:26.019Z,8.50
2017-08-31T04:46:53.600Z,8.73
2017-08-31T04:49:21.179Z,8.23
2017-08-31T04:51:48.750Z,9.30
2017-08-31T04:54:16.331Z,9.70
2017-08-31T04:56:44.081Z,8.87
2017-08-31T04:59:11.607Z,8.63
2017-08-31T05:01:39.258Z,9.37
2017-08-31T05:04:07.016Z,8.60
2017-08-31T05:06:34.608Z,8.70
2017-08-31T05:09:02.223Z,8.33
2017-08-31T05:11:29.788Z,7.30
2017-08-31T05:13:57.322Z,8.50
2017-08-31T05:16:24.945Z,8.00
2017-08-31T05:18:52.504Z,8.20
2017-08-31T05:21:20.277Z,8.47
2017-08-31T05:23:48.070Z,7.40
2017-08-31T05:26:15.597Z,9.00
2017-08-31T05:28:43.409Z,8.20
2017-08-31T05:31:10.977Z,8.47
2017-08-31T05:33:38.560Z,8.20
2017-08-31T05:36:06.087Z,8.13
2017-08-31T05:38:33.708Z,8.97
2017-08-31T05:41:01.251Z,8.83
2017-08-31T05:43:28.830Z,8.00
2017-08-31T05:45:56.436Z,8.67
2017-08-31T05:48:24.009Z,8.87
2017-08-31T05:50:51.547Z,8.23
2017-08-31T05:53:19.176Z,8.13
2017-08-31T05:55:46.831Z,8.77
2017-08-31T05:58:14.368Z,8.60
2017-08-31T06:00:42.029Z,8.33
2017-08-31T06:03:09.597Z,8.40
2017-08-31T06:05:37.454Z,8.50
2017-08-31T06:08:05.090Z,7.93
2017-08-31T06:10:32.975Z,7.33
2017-08-31T06:13:00.517Z,8.00
2017-08-31T06:15:28.135Z,8.87
2017-08-31T06:17:55.714Z,8.50
2017-08-31T06:20:23.518Z,8.57
2017-08-31T06:22:51.128Z,8.13
2017-08-31T06:25:18.698Z,8.93
2017-08-31T06:27:46.265Z,9.03
2017-08-31T06:30:13.855Z,7.93
2017-08-31T06:32:41.396Z,7.80
2017-08-31T06:35:09.480Z,9.07
2017-08-31T06:37:37.146Z,8.23
2017-08-31T06:40:04.719Z,7.20
2017-08-31T06:42:33.731Z,6.93
2017-08-31T06:45:02.389Z,7.10
2017-08-31T06:47:29.972Z,8.03
2017-08-31T06:49:57.575Z,6.60
2017-08-31T06:52:25.154Z,6.70
2017-08-31T06:54:52.731Z,6.50
2017-08-31T06:57:21.088Z,6.97
2017-08-31T06:59:48.677Z,7.80
2017-08-31T07:02:16.276Z,7.20
2017-08-31T07:04:44.347Z,5.70
2017-08-31T07:07:12.001Z,5.57
2017-08-31T07:09:39.586Z,6.40
2017-08-31T07:12:07.152Z,6.47
2017-08-31T07:14:34.748Z,6.57
2017-08-31T07:17:02.332Z,6.73
2017-08-31T07:19:29.917Z,6.40
2017-08-31T07:21:57.568Z,6.57
2017-08-31T07:24:25.158Z,5.97
2017-08-31T07:26:52.747Z,6.37
2017-08-31T07:29:20.298Z,7.33
2017-08-31T07:31:48.731Z,7.60
2017-08-31T07:34:16.479Z,7.60
2017-08-31T07:36:44.108Z,8.20
2017-08-31T07:39:11.807Z,8.10
2017-08-31T07:41:39.467Z,6.97
2017-08-31T07:44:07.030Z,5.47
2017-08-31T07:46:34.615Z,6.87
2017-08-31T07:49:03.026Z,6.47
2017-08-31T07:51:30.610Z,6.57
2017-08-31T07:53:58.193Z,5.80
2017-08-31T07:56:25.822Z,5.90
2017-08-31T07:59:14.685Z,6.13
2017-08-31T08:01:42.353Z,6.53
2017-08-31T08:04:09.922Z,5.90
2017-08-31T08:06:41.060Z,6.40
2017-08-31T08:09:08.727Z,6.37
2017-08-31T08:11:46.377Z,6.83
2017-08-31T08:14:13.917Z,7.07
2017-08-31T08:16:42.311Z,6.33
2017-08-31T08:19:10.795Z,7.27
2017-08-31T08:21:38.657Z,7.10
2017-08-31T08:24:06.300Z,6.53
2017-08-31T08:26:34.118Z,6.70
2017-08-31T08:29:01.713Z,6.53
2017-08-31T08:31:29.280Z,7.87
2017-08-31T08:33:56.884Z,7.20
2017-08-31T08:36:24.479Z,6.57
2017-08-31T08:38:52.119Z,6.80
2017-08-31T08:41:19.929Z,8.10
2017-08-31T08:43:47.521Z,7.90
2017-08-31T08:46:15.151Z,9.27
2017-08-31T08:48:42.680Z,9.67
2017-08-31T08:51:10.508Z,9.20
2017-08-31T08:53:38.217Z,9.10
2017-08-31T08:56:05.765Z,8.13
2017-08-31T08:58:33.580Z,6.30
2017-08-31T09:01:01.174Z,6.83
2017-08-31T09:03:28.725Z,7.87
2017-08-31T09:05:56.281Z,6.77
2017-08-31T09:08:23.945Z,6.20
2017-08-31T09:10:51.530Z,6.10
2017-08-31T09:13:19.097Z,7.47
2017-08-31T09:15:46.879Z,7.23
2017-08-31T09:18:14.633Z,7.53
2017-08-31T09:20:42.178Z,8.50
2017-08-31T09:23:09.753Z,6.77
2017-08-31T09:25:37.296Z,7.60
2017-08-31T09:28:04.875Z,7.10
2017-08-31T09:30:32.491Z,6.83
2017-08-31T09:33:00.068Z,7.73
2017-08-31T09:35:27.731Z,8.83
2017-08-31T09:37:55.368Z,11.70
2017-08-31T09:40:23.367Z,8.30
2017-08-31T09:42:51.153Z,7.50
2017-08-31T09:45:18.740Z,8.07
2017-08-31T09:47:46.322Z,7.80
2017-08-31T09:50:13.881Z,7.30
2017-08-31T09:52:41.461Z,8.07
2017-08-31T09:55:09.007Z,7.23
2017-08-31T09:57:37.161Z,7.83
2017-08-31T10:00:06.409Z,7.70
2017-08-31T10:02:33.987Z,7.30
2017-08-31T10:05:01.519Z,7.03
2017-08-31T10:07:29.101Z,7.07
2017-08-31T10:09:56.670Z,7.20
2017-08-31T10:12:24.203Z,8.07
2017-08-31T10:14:52.562Z,6.80
2017-08-31T10:17:20.445Z,6.93
2017-08-31T10:19:48.194Z,7.37
2017-08-31T10:22:15.817Z,8.40
2017-08-31T10:24:43.634Z,7.07
2017-08-31T10:27:11.392Z,6.63
2017-08-31T10:29:39.037Z,7.47
2017-08-31T10:32:06.654Z,7.63
2017-08-31T10:34:34.224Z,7.47
2017-08-31T10:37:02.774Z,7.37
2017-08-31T10:39:30.399Z,7.93
2017-08-31T10:41:57.947Z,7.43
2017-08-31T10:44:25.705Z,7.03
2017-08-31T10:46:53.261Z,7.17
2017-08-31T10:49:20.927Z,7.10
2017-08-31T10:51:48.791Z,7.10
2017-08-31T10:54:16.444Z,8.10
2017-08-31T10:56:44.052Z,8.53
2017-08-31T10:59:11.683Z,7.63
2017-08-31T11:01:39.324Z,7.10
2017-08-31T11:04:07.197Z,8.07
2017-08-31T11:06:34.777Z,6.50
2017-08-31T11:09:02.393Z,7.33
2017-08-31T11:11:29.951Z,6.27
2017-08-31T11:13:57.537Z,8.10
2017-08-31T11:16:26.874Z,7.60
2017-08-31T11:18:54.445Z,7.60
2017-08-31T11:21:24.721Z,7.33
2017-08-31T11:23:52.296Z,7.27
2017-08-31T11:26:19.827Z,7.30
2017-08-31T11:28:47.413Z,6.60
2017-08-31T11:31:14.961Z,6.67
2017-08-31T11:33:42.494Z,7.37
2017-08-31T11:36:10.457Z,7.37
2017-08-31T11:38:37.927Z,7.03
2017-08-31T11:41:05.429Z,7.60
2017-08-31T11:43:33.194Z,8.17
2017-08-31T11:46:01.013Z,8.00
2017-08-31T11:48:28.746Z,6.93
2017-08-31T11:50:56.268Z,6.83
2017-08-31T11:53:23.849Z,7.30
2017-08-31T11:55:51.407Z,7.73
2017-08-31T11:58:19.160Z,7.07
2017-08-31T12:00:47.663Z,8.00
2017-08-31T12:03:15.435Z,12.07
2017-08-31T12:05:43.217Z,10.20
2017-08-31T12:08:10.829Z,9.87
2017-08-31T12:13:20.312Z,7.97
2017-08-31T12:15:48.096Z,8.70
2017-08-31T12:18:15.868Z,7.10
2017-08-31T12:20:43.441Z,6.80
2017-08-31T12:23:11.023Z,7.07
2017-08-31T12:25:38.608Z,6.50
2017-08-31T12:28:06.189Z,7.30
2017-08-31T12:30:34.508Z,7.00
2017-08-31T12:33:02.077Z,6.57
2017-08-31T12:35:29.667Z,7.03
2017-08-31T12:37:57.238Z,7.87
2017-08-31T12:40:25.016Z,7.23
2017-08-31T12:42:52.618Z,9.20
2017-08-31T12:45:20.204Z,8.17
2017-08-31T12:47:48.141Z,7.00
2017-08-31T12:50:15.727Z,9.20
2017-08-31T12:52:43.287Z,7.07
2017-08-31T12:55:10.895Z,7.10
2017-08-31T12:57:38.653Z,6.90
2017-08-31T13:00:07.681Z,6.50
2017-08-31T13:02:35.282Z,6.67
2017-08-31T13:05:02.873Z,6.83
2017-08-31T13:07:30.452Z,6.80
2017-08-31T13:09:59.027Z,7.33
2017-08-31T13:12:27.238Z,5.73
2017-08-31T13:14:55.551Z,6.20
2017-08-31T13:17:23.108Z,7.10
2017-08-31T13:19:50.635Z,7.33
2017-08-31T13:22:18.513Z,6.70
2017-08-31T13:24:46.251Z,6.63
2017-08-31T13:27:15.397Z,7.23
2017-08-31T13:29:45.231Z,7.97
2017-08-31T13:32:12.860Z,7.40
2017-08-31T13:34:40.733Z,6.87
2017-08-31T13:37:09.243Z,7.50
2017-08-31T13:39:36.892Z,6.70
2017-08-31T13:42:04.414Z,7.60
2017-08-31T13:44:31.961Z,6.43
2017-08-31T13:46:59.510Z,5.73
2017-08-31T13:49:28.085Z,6.80
2017-08-31T13:51:57.375Z,6.70
2017-08-31T13:54:25.012Z,5.77
2017-08-31T13:56:55.624Z,6.33
2017-08-31T13:59:23.255Z,6.30
2017-08-31T14:01:52.286Z,7.80
2017-08-31T14:04:20.083Z,8.07
2017-08-31T14:06:47.764Z,8.30
2017-08-31T14:09:15.436Z,9.60
2017-08-31T14:11:44.063Z,9.90
2017-08-31T14:14:12.821Z,8.27
2017-08-31T14:16:40.622Z,11.10
2017-08-31T14:19:09.176Z,7.10
2017-08-31T14:21:36.767Z,6.37
2017-08-31T14:24:04.351Z,6.60
2017-08-31T14:26:32.943Z,6.90
2017-08-31T14:29:00.712Z,6.73
2017-08-31T14:31:28.301Z,5.93
2017-08-31T14:33:56.674Z,6.57
2017-08-31T14:36:24.444Z,5.73
2017-08-31T14:38:52.675Z,5.93
2017-08-31T14:41:20.209Z,5.20
2017-08-31T14:43:48.686Z,5.50
2017-08-31T14:46:16.256Z,6.73
2017-08-31T14:48:43.900Z,5.60
2017-08-31T14:51:11.422Z,5.87
2017-08-31T14:53:39.153Z,6.17
2017-08-31T14:56:06.992Z,5.80
2017-08-31T14:58:34.596Z,6.20
2017-08-31T15:01:02.341Z,5.67
2017-08-31T15:03:29.934Z,5.83
2017-08-31T15:05:58.560Z,6.27
2017-08-31T15:08:26.204Z,6.60
2017-08-31T15:10:53.769Z,6.97
2017-08-31T15:13:21.370Z,5.77
2017-08-31T15:15:48.953Z,5.43
2017-08-31T15:18:16.594Z,5.97
2017-08-31T15:20:44.366Z,5.20
2017-08-31T15:23:12.674Z,6.50
2017-08-31T15:25:40.814Z,6.00
2017-08-31T15:28:08.559Z,5.63
2017-08-31T15:30:36.625Z,5.90
2017-08-31T15:33:04.232Z,5.60
2017-08-31T15:35:31.828Z,6.43
2017-08-31T15:37:59.463Z,6.20
2017-08-31T15:40:27.095Z,5.47
2017-08-31T15:42:54.628Z,5.60
2017-08-31T15:45:22.529Z,6.10
2017-08-31T15:47:50.077Z,6.03
2017-08-31T15:50:18.446Z,6.10
2017-08-31T15:52:46.022Z,5.77
2017-08-31T15:55:13.595Z,4.97
2017-08-31T15:57:41.193Z,6.80
2017-08-31T16:00:10.223Z,6.20
2017-08-31T16:02:37.752Z,5.50
2017-08-31T16:05:05.528Z,6.53
2017-08-31T16:07:33.980Z,6.23
2017-08-31T16:10:01.528Z,5.60
2017-08-31T16:12:29.808Z,6.57
2017-08-31T16:14:57.432Z,5.60
2017-08-31T16:17:25.197Z,7.30
2017-08-31T16:19:52.856Z,6.40
2017-08-31T16:22:20.449Z,5.20
2017-08-31T16:24:48.211Z,5.70
2017-08-31T16:27:15.967Z,6.70
2017-08-31T16:29:43.764Z,6.23
2017-08-31T16:32:11.348Z,7.53
2017-08-31T16:34:40.616Z,8.00
2017-08-31T16:37:08.181Z,10.37
2017-08-31T16:39:35.945Z,7.50
2017-08-31T16:42:03.483Z,7.50
2017-08-31T16:44:32.527Z,7.37
2017-08-31T16:47:00.317Z,7.43
2017-08-31T16:49:27.860Z,7.77
2017-08-31T16:51:55.744Z,7.83
2017-08-31T16:54:23.978Z,7.60
2017-08-31T16:56:52.559Z,7.80
2017-08-31T16:59:20.125Z,8.13
2017-08-31T17:01:48.661Z,8.90
2017-08-31T17:04:16.222Z,8.80
2017-08-31T17:06:43.741Z,8.10
2017-08-31T17:09:11.450Z,8.30
2017-08-31T17:11:39.149Z,8.33
2017-08-31T17:14:06.693Z,8.37
2017-08-31T17:16:34.650Z,7.57
2017-08-31T17:19:02.458Z,8.13
2017-08-31T17:21:30.219Z,8.57
2017-08-31T17:23:57.796Z,8.53
2017-08-31T17:26:25.389Z,7.93
2017-08-31T17:28:53.760Z,9.60
2017-08-31T17:31:21.365Z,8.37
2017-08-31T17:33:49.231Z,9.00
2017-08-31T17:36:16.773Z,10.17
2017-08-31T17:38:44.382Z,8.20
2017-08-31T17:41:11.913Z,8.40
2017-08-31T17:43:39.442Z,10.00
2017-08-31T17:46:07.048Z,9.67
2017-08-31T17:48:34.818Z,10.27
2017-08-31T17:51:02.364Z,9.97
2017-08-31T17:53:34.319Z,11.50
2017-08-31T17:56:02.072Z,11.23
2017-08-31T17:58:32.376Z,13.13
2017-08-31T18:01:00.060Z,12.10
2017-08-31T18:03:27.918Z,13.23
2017-08-31T18:05:55.659Z,11.17
2017-08-31T18:11:21.191Z,12.20
2017-08-31T18:13:59.247Z,9.40
2017-08-31T18:16:27.537Z,9.73
2017-08-31T18:18:55.085Z,8.60
2017-08-31T18:21:22.606Z,9.53
2017-08-31T18:23:50.148Z,8.30
2017-08-31T18:26:18.443Z,5.50
2017-08-31T18:28:47.401Z,6.97
2017-08-31T18:31:15.976Z,6.93
2017-08-31T18:33:46.872Z,7.10
2017-08-31T18:36:14.381Z,6.20
2017-08-31T18:38:41.994Z,6.83
2017-08-31T18:41:10.244Z,6.87
2017-08-31T18:43:38.263Z,7.37
2017-08-31T18:46:05.853Z,8.07
2017-08-31T18:48:34.908Z,6.97
2017-08-31T18:51:02.509Z,8.17
2017-08-31T18:53:30.081Z,7.10
2017-08-31T18:55:57.881Z,6.70
2017-08-31T18:58:25.433Z,7.50
2017-08-31T19:00:53.100Z,7.57
2017-08-31T19:03:20.622Z,7.27
2017-08-31T19:05:48.141Z,6.27
2017-08-31T19:08:16.680Z,6.90
2017-08-31T19:10:44.199Z,7.60
2017-08-31T19:13:11.786Z,7.73
2017-08-31T19:15:39.347Z,7.37
2017-08-31T19:18:06.865Z,6.97
2017-08-31T19:20:34.758Z,8.23
2017-08-31T19:23:02.349Z,7.07
2017-08-31T19:25:29.874Z,7.33
2017-08-31T19:27:57.409Z,6.60
2017-08-31T19:30:25.877Z,6.97
2017-08-31T19:32:53.404Z,6.80
2017-08-31T19:35:20.950Z,6.27
2017-08-31T19:37:48.520Z,7.17
2017-08-31T19:40:16.137Z,6.50
2017-08-31T19:42:43.874Z,7.40
2017-08-31T19:45:11.465Z,6.57
2017-08-31T19:47:39.107Z,6.87
2017-08-31T19:50:07.390Z,6.40
2017-08-31T19:52:34.978Z,6.60
2017-08-31T19:55:02.521Z,7.30
2017-08-31T19:57:30.094Z,7.50
2017-08-31T19:59:57.671Z,7.40
2017-08-31T20:02:25.281Z,6.60
2017-08-31T20:04:52.847Z,6.87
2017-08-31T20:07:20.410Z,7.23
2017-08-31T20:09:48.038Z,7.20
2017-08-31T20:12:15.563Z,6.70
2017-08-31T20:14:43.099Z,7.20
2017-08-31T20:17:10.691Z,7.30
2017-08-31T20:19:38.316Z,7.67
2017-08-31T20:22:05.861Z,6.43
2017-08-31T20:24:33.442Z,6.73
2017-08-31T20:27:00.995Z,6.20
2017-08-31T20:29:28.815Z,7.17
2017-08-31T20:31:56.402Z,7.27
2017-08-31T20:34:23.920Z,6.50
2017-08-31T20:36:51.445Z,7.20
2017-08-31T20:41:53.119Z,7.70
2017-08-31T20:44:20.672Z,6.67
2017-08-31T20:46:49.709Z,6.40
2017-08-31T20:49:21.851Z,6.73
2017-08-31T20:51:49.362Z,6.40
2017-08-31T20:57:54.453Z,6.73
2017-08-31T21:00:49.475Z,6.00
2017-08-31T21:03:17.213Z,6.90
2017-08-31T21:05:47.212Z,6.07
2017-08-31T21:08:14.727Z,6.30
2017-08-31T21:10:42.237Z,6.67
2017-08-31T21:13:09.781Z,6.93
2017-08-31T21:15:37.282Z,6.43
2017-08-31T21:18:04.817Z,6.60
2017-08-31T21:20:32.389Z,6.50
2017-08-31T21:22:59.904Z,7.40
2017-08-31T21:25:27.448Z,6.20
2017-08-31T21:27:55.002Z,6.47
2017-08-31T21:30:22.585Z,7.00
2017-08-31T21:32:50.110Z,6.57
2017-08-31T21:35:18.481Z,7.43
2017-08-31T21:37:46.071Z,6.90
2017-08-31T21:40:14.888Z,6.87
2017-08-31T21:42:42.429Z,7.67
2017-08-31T21:45:09.976Z,6.60
2017-08-31T21:47:37.483Z,7.67
2017-08-31T21:50:05.439Z,8.20
2017-08-31T21:52:33.102Z,7.30
2017-08-31T21:55:00.621Z,7.20
2017-08-31T21:57:28.130Z,6.83
2017-08-31T21:59:55.701Z,6.40
2017-08-31T22:02:23.248Z,6.70
2017-08-31T22:04:50.771Z,7.03
2017-08-31T22:07:18.675Z,6.70
2017-08-31T22:09:46.219Z,7.17
2017-08-31T22:12:13.747Z,7.47
2017-08-31T22:14:41.275Z,6.43
2017-08-31T22:17:08.856Z,7.43
2017-08-31T22:19:36.410Z,6.70
2017-08-31T22:22:03.979Z,6.70
2017-08-31T22:24:31.537Z,7.00
2017-08-31T22:26:59.117Z,6.40
2017-08-31T22:29:26.891Z,6.90
2017-08-31T22:31:54.785Z,6.60
2017-08-31T22:34:22.616Z,7.20
2017-08-31T22:36:50.132Z,6.90
2017-08-31T22:39:17.685Z,7.00
2017-08-31T22:41:45.214Z,7.00
2017-08-31T22:44:12.759Z,6.47
2017-08-31T22:46:40.335Z,7.43
2017-08-31T22:49:07.864Z,6.93
2017-08-31T22:51:35.387Z,6.63
2017-08-31T22:54:02.992Z,6.93
2017-08-31T22:56:42.368Z,6.67
2017-08-31T22:59:09.963Z,6.70
2017-08-31T23:01:37.538Z,6.83
2017-08-31T23:04:05.911Z,7.93
2017-08-31T23:06:33.616Z,6.60
2017-08-31T23:09:01.224Z,6.50
2017-08-31T23:11:28.745Z,6.77
2017-08-31T23:13:56.519Z,7.00
2017-08-31T23:16:24.441Z,8.20
2017-08-31T23:18:51.969Z,6.83
2017-08-31T23:21:19.496Z,6.20
2017-08-31T23:23:47.367Z,7.17
2017-08-31T23:26:15.143Z,7.50
2017-08-31T23:28:42.684Z,8.23
2017-08-31T23:31:10.248Z,8.13
2017-08-31T23:33:37.775Z,8.27
2017-08-31T23:36:05.545Z,8.50
2017-08-31T23:38:33.100Z,8.37
2017-08-31T23:41:00.614Z,8.40
2017-08-31T23:43:28.135Z,8.80
2017-08-31T23:45:56.611Z,7.70
2017-08-31T23:48:24.131Z,8.20
2017-08-31T23:50:51.888Z,7.97
2017-08-31T23:53:19.460Z,7.23
2017-08-31T23:55:47.004Z,6.77
2017-08-31T23:58:14.598Z,8.57
